KCOD/COD METAR and TAF weather

Enter ICAO airport designator
Station Type Date Time Source
KCOD METAR 2020/10/22 02:56 UTC NOAA

KCOD 220256Z AUTO 36005KT 2 1/2SM -SN BR BKN008 OVC011 00/M01 A2994 RMK AO2 CIG 005V009 SLP158 P0000 60000 T00001011 51012 FZRANO


Station Type Date Time Source
KCOD Decoded METAR 2020/10/22 02:56 UTC NOAA

Cody, WY, United States (KCOD) 44-31N 109-01W 1553M
Oct 21, 2020 - 10:56 PM EDT / 2020.10.22 0256 UTC
Wind: from the N (360 degrees) at 6 MPH (5 KT):0
Visibility: 2 1/2 mile(s):0
Sky conditions: overcast
Weather: light snow; mist
Precipitation last hour: A trace
Temperature: 32.0 F (0.0 C)
Windchill: 26 F (-3 C):1
Dew Point: 30.0 F (-1.1 C)
Relative Humidity: 92%
Pressure (altimeter): 29.94 in. Hg (1013 hPa)
Pressure tendency: 0.04 inches (1.2 hPa) higher than three hours ago
ob: KCOD 220256Z AUTO 36005KT 2 1/2SM -SN BR BKN008 OVC011 00/M01 A2994 RMK AO2 CIG 005V009 SLP158 P0000 60000 T00001011 51012 FZRANO
cycle: 3

Station Type Date Time Source
KCOD TAF 2020/10/21 21:57 UTC NOAA

TAF
AMD KCOD 212054Z 2121/2218 03010KT P6SM SCT012 OVC025
TEMPO 2121/2123 OVC012
FM212300 30015G25KT P6SM VCSH BKN040 OVC100
FM220000 01010G20KT P6SM VCSH OVC030
FM220300 01017G27KT 3SM -SN OVC015
FM221500 35016G26KT P6SM VCSH OVC030

Example: see airport list